createdAt,value
2018-05-06T00:00:09.636Z,49.28
2018-05-06T00:02:37.691Z,49.22
2018-05-06T00:05:05.249Z,49.47
2018-05-06T00:07:32.788Z,49.71
2018-05-06T00:10:00.367Z,50.21
2018-05-06T00:12:28.050Z,50.51
2018-05-06T00:14:55.971Z,50.58
2018-05-06T00:17:23.604Z,50.80
2018-05-06T00:19:51.188Z,50.74
2018-05-06T00:22:18.873Z,50.99
2018-05-06T00:24:46.418Z,51.06
2018-05-06T00:27:13.970Z,51.46
2018-05-06T00:29:41.611Z,51.78
2018-05-06T00:32:11.247Z,51.74
2018-05-06T00:34:39.262Z,51.58
2018-05-06T00:37:07.042Z,51.60
2018-05-06T00:39:34.663Z,51.55
2018-05-06T00:42:02.231Z,51.35
2018-05-06T00:44:29.857Z,51.29
2018-05-06T00:46:57.438Z,51.09
2018-05-06T00:49:24.987Z,51.34
2018-05-06T00:51:52.964Z,50.83
2018-05-06T00:54:32.319Z,50.21
2018-05-06T00:57:00.031Z,50.45
2018-05-06T00:59:27.570Z,50.35
2018-05-06T01:01:55.418Z,50.30
2018-05-06T01:04:23.135Z,50.10
2018-05-06T01:06:50.726Z,50.25
2018-05-06T01:09:18.342Z,50.15
2018-05-06T01:11:45.929Z,50.48
2018-05-06T01:14:13.617Z,50.78
2018-05-06T01:16:41.399Z,50.98
2018-05-06T01:19:08.973Z,51.01
2018-05-06T01:21:36.583Z,50.84
2018-05-06T01:24:04.196Z,50.60
2018-05-06T01:26:31.898Z,50.31
2018-05-06T01:28:59.466Z,50.46
2018-05-06T01:31:27.112Z,50.45
2018-05-06T01:33:55.095Z,50.07
2018-05-06T01:36:22.646Z,49.95
2018-05-06T01:38:50.570Z,50.06
2018-05-06T01:41:18.209Z,49.73
2018-05-06T01:43:46.275Z,49.94
2018-05-06T01:46:13.842Z,50.34
2018-05-06T01:48:41.392Z,50.51
2018-05-06T01:51:09.064Z,50.57
2018-05-06T01:53:36.797Z,50.57
2018-05-06T01:56:04.448Z,50.55
2018-05-06T01:58:32.020Z,50.76
2018-05-06T02:00:59.596Z,50.61
2018-05-06T02:03:27.446Z,50.57
2018-05-06T02:05:55.103Z,50.69
2018-05-06T02:08:22.902Z,50.64
2018-05-06T02:10:51.017Z,51.01
2018-05-06T02:13:18.743Z,51.08
2018-05-06T02:15:46.294Z,51.32
2018-05-06T02:18:14.260Z,51.34
2018-05-06T02:20:41.810Z,51.25
2018-05-06T02:23:09.399Z,51.38
2018-05-06T02:25:37.222Z,51.35
2018-05-06T02:28:04.794Z,51.54
2018-05-06T02:30:32.475Z,51.72
2018-05-06T02:33:00.047Z,52.02
2018-05-06T02:35:27.622Z,52.45
2018-05-06T02:37:55.263Z,52.85
2018-05-06T02:40:23.125Z,52.85
2018-05-06T02:42:50.771Z,52.92
2018-05-06T02:45:18.323Z,52.99
2018-05-06T02:47:45.906Z,53.10
2018-05-06T02:50:13.480Z,53.26
2018-05-06T02:52:41.184Z,53.42
2018-05-06T02:55:08.780Z,53.77
2018-05-06T02:57:36.341Z,53.87
2018-05-06T03:00:03.927Z,54.00
2018-05-06T03:02:31.567Z,54.16
2018-05-06T03:04:59.620Z,54.14
2018-05-06T03:07:27.242Z,54.42
2018-05-06T03:09:54.798Z,54.67
2018-05-06T03:12:22.377Z,54.58
2018-05-06T03:14:50.178Z,54.76
2018-05-06T03:17:17.756Z,55.02
2018-05-06T03:19:45.331Z,54.98
2018-05-06T03:22:13.316Z,54.91
2018-05-06T03:24:40.879Z,55.09
2018-05-06T03:27:08.447Z,55.12
2018-05-06T03:29:36.384Z,55.15
2018-05-06T03:32:04.869Z,55.18
2018-05-06T03:34:32.411Z,55.45
2018-05-06T03:37:00.047Z,55.55
2018-05-06T03:39:27.626Z,55.62
2018-05-06T03:41:55.180Z,55.77
2018-05-06T03:44:22.999Z,56.15
2018-05-06T03:46:50.556Z,56.50
2018-05-06T03:49:18.195Z,56.68
2018-05-06T03:51:45.742Z,56.76
2018-05-06T03:54:13.308Z,56.84
2018-05-06T03:57:01.347Z,57.26
2018-05-06T03:59:40.673Z,57.41
2018-05-06T04:05:19.288Z,57.52
2018-05-06T04:07:47.131Z,57.40
2018-05-06T04:10:14.741Z,57.55
2018-05-06T04:12:42.307Z,57.74
2018-05-06T04:15:09.851Z,57.79
2018-05-06T04:17:37.474Z,57.85
2018-05-06T04:20:05.158Z,57.98
2018-05-06T04:22:32.784Z,57.96
2018-05-06T04:25:00.344Z,58.22
2018-05-06T04:27:28.213Z,58.45
2018-05-06T04:29:55.808Z,58.55
2018-05-06T04:32:23.452Z,58.79
2018-05-06T04:34:51.030Z,58.77
2018-05-06T04:37:18.606Z,59.04
2018-05-06T04:39:46.561Z,59.29
2018-05-06T04:42:14.183Z,59.11
2018-05-06T04:44:41.756Z,58.96
2018-05-06T04:47:09.296Z,58.77
2018-05-06T04:49:37.260Z,59.32
2018-05-06T04:52:04.846Z,59.44
2018-05-06T04:54:32.569Z,59.53
2018-05-06T04:57:00.195Z,59.83
2018-05-06T04:59:27.873Z,59.54
2018-05-06T05:01:56.043Z,59.40
2018-05-06T05:04:23.690Z,59.42
2018-05-06T05:06:51.310Z,59.40
2018-05-06T05:09:18.977Z,59.21
2018-05-06T05:11:46.527Z,58.96
2018-05-06T05:14:14.227Z,58.83
2018-05-06T05:16:41.995Z,59.21
2018-05-06T05:19:09.785Z,59.46
2018-05-06T05:21:37.449Z,59.14
2018-05-06T05:24:05.116Z,59.38
2018-05-06T05:26:32.703Z,59.15
2018-05-06T05:29:00.271Z,58.59
2018-05-06T05:31:27.875Z,58.64
2018-05-06T05:33:55.491Z,58.21
2018-05-06T05:36:23.471Z,58.44
2018-05-06T05:38:51.036Z,58.73
2018-05-06T05:41:18.683Z,57.56
2018-05-06T05:43:46.487Z,57.49
2018-05-06T05:46:14.119Z,57.22
2018-05-06T05:48:42.708Z,56.83
2018-05-06T05:51:10.474Z,56.69
2018-05-06T05:53:38.086Z,56.79
2018-05-06T05:56:05.731Z,56.96
2018-05-06T05:58:33.594Z,56.55
2018-05-06T06:01:01.515Z,55.61
2018-05-06T06:03:29.374Z,55.37
2018-05-06T06:05:57.106Z,55.63
2018-05-06T06:08:24.717Z,55.30
2018-05-06T06:10:52.301Z,56.01
2018-05-06T06:13:19.955Z,55.15
2018-05-06T06:15:47.743Z,54.88
2018-05-06T06:18:15.402Z,54.01
2018-05-06T06:20:43.538Z,53.83
2018-05-06T06:23:11.253Z,53.86
2018-05-06T06:25:38.822Z,53.83
2018-05-06T06:28:06.491Z,54.14
2018-05-06T06:30:34.041Z,52.20
2018-05-06T06:33:01.655Z,52.59
2018-05-06T06:35:29.179Z,52.02
2018-05-06T06:37:56.860Z,51.66
2018-05-06T06:40:24.401Z,50.19
2018-05-06T06:42:51.943Z,50.04
2018-05-06T06:45:19.523Z,50.50
2018-05-06T06:47:47.317Z,49.49
2018-05-06T06:50:15.135Z,49.76
2018-05-06T06:52:42.934Z,49.61
2018-05-06T06:55:10.542Z,47.54
2018-05-06T06:57:38.235Z,47.22
2018-05-06T07:00:05.791Z,46.69
2018-05-06T07:02:33.368Z,47.10
2018-05-06T07:05:01.422Z,45.41
2018-05-06T07:07:28.977Z,45.73
2018-05-06T07:09:56.535Z,45.44
2018-05-06T07:12:24.344Z,45.58
2018-05-06T07:14:52.027Z,45.73
2018-05-06T07:17:19.569Z,46.52
2018-05-06T07:19:47.114Z,46.64
2018-05-06T07:22:14.714Z,44.75
2018-05-06T07:24:42.264Z,44.63
2018-05-06T07:27:09.806Z,43.62
2018-05-06T07:29:37.403Z,43.62
2018-05-06T07:32:05.020Z,44.39
2018-05-06T07:34:32.632Z,43.25
2018-05-06T07:37:00.187Z,42.67
2018-05-06T07:39:27.876Z,41.34
2018-05-06T07:41:55.509Z,40.81
2018-05-06T07:44:23.081Z,41.05
2018-05-06T07:46:50.710Z,39.81
2018-05-06T07:49:18.354Z,40.97
2018-05-06T07:51:45.996Z,40.32
2018-05-06T07:54:13.542Z,40.61
2018-05-06T07:56:41.364Z,39.43
2018-05-06T07:59:09.027Z,39.72
2018-05-06T08:01:36.647Z,39.49
2018-05-06T08:04:04.345Z,38.39
2018-05-06T08:06:31.953Z,38.70
2018-05-06T08:08:59.590Z,38.43
2018-05-06T08:11:27.136Z,37.55
2018-05-06T08:13:54.702Z,38.00
2018-05-06T08:16:22.394Z,38.20
2018-05-06T08:18:49.896Z,37.10
2018-05-06T08:21:17.458Z,37.95
2018-05-06T08:23:45.155Z,37.80
2018-05-06T08:26:12.699Z,37.41
2018-05-06T08:28:40.336Z,36.57
2018-05-06T08:31:08.038Z,35.76
2018-05-06T08:33:35.552Z,36.02
2018-05-06T08:36:03.511Z,34.55
2018-05-06T08:38:31.653Z,34.84
2018-05-06T08:40:59.298Z,33.97
2018-05-06T08:43:26.957Z,33.89
2018-05-06T08:45:54.613Z,34.52
2018-05-06T08:48:22.412Z,35.07
2018-05-06T08:50:50.112Z,34.79
2018-05-06T08:53:17.681Z,33.99
2018-05-06T08:55:45.299Z,33.69
2018-05-06T08:58:12.940Z,33.56
2018-05-06T09:00:40.529Z,33.66
2018-05-06T09:03:08.325Z,33.44
2018-05-06T09:05:35.914Z,32.77
2018-05-06T09:08:03.523Z,32.71
2018-05-06T09:10:31.119Z,32.87
2018-05-06T09:12:58.757Z,31.59
2018-05-06T09:15:26.317Z,31.08
2018-05-06T09:17:53.932Z,31.98
2018-05-06T09:20:21.549Z,31.03
2018-05-06T09:22:49.160Z,30.89
2018-05-06T09:25:16.807Z,30.58
2018-05-06T09:27:44.348Z,29.93
2018-05-06T09:30:12.234Z,29.83
2018-05-06T09:32:39.824Z,29.36
2018-05-06T09:35:07.610Z,28.85
2018-05-06T09:37:35.257Z,28.58
2018-05-06T09:40:02.795Z,27.08
2018-05-06T09:42:30.457Z,27.12
2018-05-06T09:44:58.010Z,28.85
2018-05-06T09:47:25.620Z,26.74
2018-05-06T09:49:53.495Z,26.50
2018-05-06T09:52:21.129Z,26.16
2018-05-06T09:54:48.815Z,26.41
2018-05-06T09:57:16.650Z,27.21
2018-05-06T09:59:44.220Z,26.89
2018-05-06T10:02:11.837Z,27.68
2018-05-06T10:04:39.443Z,25.59
2018-05-06T10:07:06.985Z,27.11
2018-05-06T10:09:34.585Z,25.94
2018-05-06T10:12:02.135Z,26.77
2018-05-06T10:14:29.694Z,27.55
2018-05-06T10:16:57.278Z,26.79
2018-05-06T10:19:24.825Z,27.44
2018-05-06T10:21:52.827Z,26.39
2018-05-06T10:24:20.377Z,26.10
2018-05-06T10:26:48.244Z,25.82
2018-05-06T10:29:16.244Z,26.49
2018-05-06T10:31:43.785Z,26.33
2018-05-06T10:34:11.348Z,26.59
2018-05-06T10:36:38.970Z,26.96
2018-05-06T10:39:06.833Z,26.25
2018-05-06T10:41:34.417Z,24.87
2018-05-06T10:44:02.102Z,24.46
2018-05-06T10:46:29.683Z,25.78
2018-05-06T10:48:57.308Z,25.70
2018-05-06T10:51:24.949Z,26.10
2018-05-06T10:53:52.497Z,23.46
2018-05-06T10:56:20.052Z,23.73
2018-05-06T10:58:47.703Z,23.57
2018-05-06T11:01:15.625Z,24.95
2018-05-06T11:03:43.192Z,25.09
2018-05-06T11:06:10.757Z,24.53
2018-05-06T11:08:38.499Z,23.93
2018-05-06T11:11:06.060Z,24.17
2018-05-06T11:13:34.004Z,24.18
2018-05-06T11:16:01.701Z,24.96
2018-05-06T11:18:29.400Z,22.94
2018-05-06T11:20:57.054Z,22.70
2018-05-06T11:23:24.630Z,22.07
2018-05-06T11:25:52.517Z,22.30
2018-05-06T11:28:20.189Z,21.98
2018-05-06T11:30:47.738Z,21.74
2018-05-06T11:33:15.415Z,21.64
2018-05-06T11:35:43.235Z,22.06
2018-05-06T11:38:10.778Z,22.66
2018-05-06T11:40:38.328Z,22.75
2018-05-06T11:43:05.934Z,22.83
2018-05-06T11:45:33.479Z,22.48
2018-05-06T11:48:01.066Z,21.89
2018-05-06T11:50:28.646Z,22.46
2018-05-06T11:52:56.217Z,22.80
2018-05-06T11:55:23.783Z,22.71
2018-05-06T11:57:51.536Z,21.97
2018-05-06T12:00:19.098Z,22.32
2018-05-06T12:02:46.703Z,22.93
2018-05-06T12:05:14.343Z,21.89
2018-05-06T12:07:41.931Z,22.49
2018-05-06T12:10:09.552Z,21.59
2018-05-06T12:12:37.115Z,23.20
2018-05-06T12:15:04.768Z,21.86
2018-05-06T12:17:32.324Z,21.83
2018-05-06T12:19:59.922Z,22.93
2018-05-06T12:22:27.530Z,22.04
2018-05-06T12:24:55.087Z,20.71
2018-05-06T12:27:23.025Z,22.71
2018-05-06T12:29:50.586Z,21.46
2018-05-06T12:32:18.157Z,20.69
2018-05-06T12:34:45.768Z,21.70
2018-05-06T12:37:13.323Z,21.17
2018-05-06T12:39:40.909Z,21.06
2018-05-06T12:42:08.960Z,20.45
2018-05-06T12:44:36.510Z,20.54
2018-05-06T12:47:04.119Z,21.91
2018-05-06T12:49:31.734Z,20.64
2018-05-06T12:51:59.323Z,21.16
2018-05-06T12:54:26.939Z,20.92
2018-05-06T12:56:54.672Z,21.96
2018-05-06T12:59:22.287Z,21.55
2018-05-06T13:01:49.834Z,21.20
2018-05-06T13:04:17.582Z,20.24
2018-05-06T13:06:45.270Z,21.02
2018-05-06T13:09:12.845Z,21.02
2018-05-06T13:11:40.467Z,21.90
2018-05-06T13:14:08.074Z,20.99
2018-05-06T13:16:35.638Z,20.93
2018-05-06T13:19:03.187Z,21.89
2018-05-06T13:21:30.886Z,20.40
2018-05-06T13:23:58.432Z,21.56
2018-05-06T13:26:25.999Z,21.90
2018-05-06T13:28:53.773Z,21.02
2018-05-06T13:31:21.415Z,21.37
2018-05-06T13:33:48.977Z,21.97
2018-05-06T13:36:17.034Z,21.33
2018-05-06T13:38:44.606Z,21.43
2018-05-06T13:41:12.416Z,22.27
2018-05-06T13:43:40.443Z,22.05
2018-05-06T13:46:08.023Z,21.85
2018-05-06T13:48:35.586Z,21.46
2018-05-06T13:51:03.179Z,22.24
2018-05-06T13:53:30.800Z,20.57
2018-05-06T13:55:58.357Z,21.50
2018-05-06T13:58:26.949Z,20.86
2018-05-06T14:00:55.052Z,21.33
2018-05-06T14:03:22.660Z,21.42
2018-05-06T14:05:50.534Z,21.92
2018-05-06T14:08:18.085Z,21.66
2018-05-06T14:10:45.715Z,21.92
2018-05-06T14:13:13.500Z,21.71
2018-05-06T14:15:41.286Z,21.24
2018-05-06T14:18:08.920Z,21.85
2018-05-06T14:20:36.544Z,22.22
2018-05-06T14:23:04.433Z,22.28
2018-05-06T14:25:32.528Z,21.90
2018-05-06T14:28:00.156Z,22.24
2018-05-06T14:30:27.741Z,21.57
2018-05-06T14:32:55.554Z,21.95
2018-05-06T14:35:23.140Z,22.27
2018-05-06T14:37:50.755Z,22.49
2018-05-06T14:40:18.438Z,21.81
2018-05-06T14:42:46.043Z,22.41
2018-05-06T14:45:13.601Z,22.64
2018-05-06T14:47:53.106Z,22.64
2018-05-06T14:50:20.681Z,21.69
2018-05-06T14:52:48.365Z,21.69
2018-05-06T14:55:16.073Z,21.65
2018-05-06T14:57:43.639Z,21.06
2018-05-06T15:00:11.534Z,21.31
2018-05-06T15:02:39.073Z,21.20
2018-05-06T15:05:06.639Z,21.66
2018-05-06T15:07:34.234Z,22.04
2018-05-06T15:10:01.787Z,22.52
2018-05-06T15:12:29.400Z,22.77
2018-05-06T15:14:57.412Z,22.66
2018-05-06T15:17:24.974Z,21.96
2018-05-06T15:19:53.074Z,22.61
2018-05-06T15:22:20.631Z,21.92
2018-05-06T15:24:48.194Z,21.81
2018-05-06T15:27:16.006Z,21.57
2018-05-06T15:29:43.813Z,22.35
2018-05-06T15:32:11.392Z,22.29
2018-05-06T15:34:39.173Z,22.07
2018-05-06T15:37:07.204Z,22.21
2018-05-06T15:39:34.837Z,21.92
2018-05-06T15:42:02.621Z,22.35
2018-05-06T15:44:30.770Z,22.35
2018-05-06T15:46:58.407Z,22.96
2018-05-06T15:49:26.039Z,22.53
2018-05-06T15:51:53.785Z,22.98
2018-05-06T15:54:21.331Z,22.89
2018-05-06T15:56:48.946Z,23.13
2018-05-06T15:59:17.017Z,23.72
2018-05-06T16:01:44.647Z,23.80
2018-05-06T16:04:15.337Z,23.56
2018-05-06T16:06:42.908Z,23.59
2018-05-06T16:09:10.694Z,23.95
2018-05-06T16:11:39.199Z,24.20
2018-05-06T16:14:06.812Z,24.39
2018-05-06T16:16:34.451Z,24.44
2018-05-06T16:19:02.033Z,24.54
2018-05-06T16:21:29.609Z,24.90
2018-05-06T16:23:57.325Z,25.08
2018-05-06T16:26:24.890Z,24.90
2018-05-06T16:28:52.519Z,25.43
2018-05-06T16:31:20.074Z,25.69
2018-05-06T16:33:47.621Z,25.58
2018-05-06T16:36:15.653Z,25.45
2018-05-06T16:38:43.458Z,25.70
2018-05-06T16:41:11.018Z,25.75
2018-05-06T16:43:38.853Z,26.39
2018-05-06T16:46:06.440Z,25.64
2018-05-06T16:48:34.645Z,25.60
2018-05-06T16:51:02.497Z,26.03
2018-05-06T16:53:30.175Z,25.64
2018-05-06T16:55:58.042Z,25.49
2018-05-06T16:58:25.610Z,26.02
2018-05-06T17:00:53.426Z,26.03
2018-05-06T17:03:20.981Z,26.34
2018-05-06T17:05:48.933Z,27.01
2018-05-06T17:08:16.578Z,27.20
2018-05-06T17:10:44.386Z,27.37
2018-05-06T17:13:12.234Z,27.67
2018-05-06T17:15:40.095Z,27.85
2018-05-06T17:18:07.671Z,28.20
2018-05-06T17:20:35.679Z,28.02
2018-05-06T17:23:03.274Z,28.23
2018-05-06T17:25:30.846Z,28.25
2018-05-06T17:27:58.692Z,28.29
2018-05-06T17:30:26.263Z,28.36
2018-05-06T17:32:54.610Z,28.36
2018-05-06T17:35:22.328Z,28.35
2018-05-06T17:37:49.967Z,28.57
2018-05-06T17:40:17.892Z,28.90
2018-05-06T17:42:45.545Z,29.04
2018-05-06T17:45:13.882Z,29.39
2018-05-06T17:47:41.590Z,29.42
2018-05-06T17:50:09.491Z,29.71
2018-05-06T17:52:37.111Z,29.86
2018-05-06T17:55:04.754Z,30.38
2018-05-06T17:57:32.751Z,30.55
2018-05-06T18:00:00.432Z,30.43
2018-05-06T18:02:28.048Z,30.76
2018-05-06T18:04:55.611Z,31.23
2018-05-06T18:07:23.457Z,31.36
2018-05-06T18:09:51.422Z,31.47
2018-05-06T18:12:19.000Z,31.70
2018-05-06T18:14:46.600Z,31.57
2018-05-06T18:17:14.293Z,31.62
2018-05-06T18:19:42.221Z,31.83
2018-05-06T18:22:09.810Z,32.21
2018-05-06T18:24:37.443Z,32.40
2018-05-06T18:27:05.290Z,32.41
2018-05-06T18:29:33.166Z,32.47
2018-05-06T18:32:01.085Z,32.67
2018-05-06T18:34:28.657Z,33.06
2018-05-06T18:36:56.207Z,33.25
2018-05-06T18:39:24.703Z,33.54
2018-05-06T18:41:53.034Z,33.63
2018-05-06T18:44:20.639Z,33.77
2018-05-06T18:46:48.234Z,33.88
2018-05-06T18:49:15.868Z,33.95
2018-05-06T18:51:43.541Z,34.22
2018-05-06T18:54:11.240Z,34.82
2018-05-06T18:56:38.820Z,34.65
2018-05-06T18:59:06.495Z,34.88
2018-05-06T19:01:34.343Z,35.30
2018-05-06T19:04:01.926Z,35.57
2018-05-06T19:06:29.761Z,35.73
2018-05-06T19:08:57.330Z,35.89
2018-05-06T19:11:25.033Z,36.08
2018-05-06T19:13:52.707Z,36.53
2018-05-06T19:16:20.350Z,36.54
2018-05-06T19:18:47.946Z,36.66
2018-05-06T19:21:15.577Z,36.90
2018-05-06T19:23:43.176Z,37.25
2018-05-06T19:26:11.179Z,37.43
2018-05-06T19:28:38.792Z,37.70
2018-05-06T19:31:06.363Z,38.22
2018-05-06T19:33:33.978Z,38.38
2018-05-06T19:36:01.556Z,38.58
2018-05-06T19:38:29.441Z,38.88
2018-05-06T19:40:57.012Z,39.22
2018-05-06T19:43:24.582Z,39.57
2018-05-06T19:45:52.197Z,39.73
2018-05-06T19:48:19.789Z,40.04
2018-05-06T19:50:47.393Z,40.40
2018-05-06T19:53:15.772Z,40.69
2018-05-06T19:55:43.350Z,40.81
2018-05-06T19:58:10.927Z,41.04
2018-05-06T20:00:38.523Z,41.14
2018-05-06T20:03:06.117Z,41.24
2018-05-06T20:05:33.748Z,41.41
2018-05-06T20:08:01.393Z,41.61
2018-05-06T20:10:29.294Z,41.69
2018-05-06T20:12:57.032Z,41.99
2018-05-06T20:15:24.582Z,41.96
2018-05-06T20:17:52.554Z,42.24
2018-05-06T20:20:20.125Z,42.37
2018-05-06T20:22:47.819Z,42.54
2018-05-06T20:25:15.535Z,43.07
2018-05-06T20:27:43.125Z,43.28
2018-05-06T20:30:12.713Z,43.25
2018-05-06T20:32:40.361Z,43.67
2018-05-06T20:35:07.934Z,43.81
2018-05-06T20:37:35.900Z,44.01
2018-05-06T20:40:03.802Z,44.20
2018-05-06T20:42:31.481Z,44.42
2018-05-06T20:44:59.527Z,44.74
2018-05-06T20:47:27.457Z,44.86
2018-05-06T20:49:55.527Z,45.08
2018-05-06T20:52:23.397Z,45.33
2018-05-06T20:54:51.005Z,45.54
2018-05-06T20:57:18.691Z,45.88
2018-05-06T20:59:46.258Z,45.92
2018-05-06T21:02:13.859Z,46.20
2018-05-06T21:04:41.439Z,46.44
2018-05-06T21:07:09.063Z,46.72
2018-05-06T21:09:36.615Z,46.80
2018-05-06T21:12:04.236Z,46.92
2018-05-06T21:14:31.896Z,47.28
2018-05-06T21:16:59.623Z,47.57
2018-05-06T21:19:27.298Z,47.74
2018-05-06T21:21:54.985Z,47.90
2018-05-06T21:24:22.836Z,48.08
2018-05-06T21:26:50.416Z,48.14
2018-05-06T21:29:17.974Z,48.39
2018-05-06T21:31:45.871Z,48.46
2018-05-06T21:34:13.680Z,48.56
2018-05-06T21:36:41.367Z,48.75
2018-05-06T21:39:09.024Z,49.08
2018-05-06T21:41:36.488Z,49.34
2018-05-06T21:44:04.501Z,49.68
2018-05-06T21:46:32.246Z,49.82
2018-05-06T21:49:00.040Z,50.04
2018-05-06T21:51:27.644Z,50.14
2018-05-06T21:53:55.951Z,50.48
2018-05-06T21:56:23.762Z,50.43
2018-05-06T21:58:51.558Z,50.82
2018-05-06T22:01:21.127Z,51.17
2018-05-06T22:03:48.675Z,51.29
2018-05-06T22:06:16.282Z,51.36
2018-05-06T22:08:43.928Z,51.42
2018-05-06T22:11:11.798Z,51.71
2018-05-06T22:13:39.377Z,51.98
2018-05-06T22:16:06.926Z,52.03
2018-05-06T22:18:34.624Z,52.11
2018-05-06T22:21:02.271Z,52.25
2018-05-06T22:23:29.822Z,52.18
2018-05-06T22:25:57.393Z,52.59
2018-05-06T22:28:24.980Z,52.81
2018-05-06T22:30:52.805Z,52.99
2018-05-06T22:33:20.675Z,53.37
2018-05-06T22:35:48.671Z,53.40
2018-05-06T22:38:16.218Z,53.50
2018-05-06T22:40:44.077Z,53.54
2018-05-06T22:43:11.695Z,53.72
2018-05-06T22:45:39.329Z,54.27
2018-05-06T22:48:07.032Z,54.20
2018-05-06T22:50:34.601Z,54.24
2018-05-06T22:53:02.250Z,54.48
2018-05-06T22:55:29.957Z,54.56
2018-05-06T22:57:57.508Z,54.63
2018-05-06T23:00:25.091Z,54.82
2018-05-06T23:02:52.738Z,55.20
2018-05-06T23:05:20.393Z,55.05
2018-05-06T23:07:48.043Z,54.97
2018-05-06T23:10:15.847Z,55.14
2018-05-06T23:12:43.400Z,55.01
2018-05-06T23:15:11.223Z,55.36
2018-05-06T23:17:38.867Z,55.27
2018-05-06T23:20:06.467Z,55.58
2018-05-06T23:22:34.078Z,55.60
2018-05-06T23:25:01.670Z,55.72
2018-05-06T23:27:29.692Z,55.99
2018-05-06T23:29:57.637Z,55.92
2018-05-06T23:32:25.083Z,55.92
2018-05-06T23:34:52.669Z,56.11
2018-05-06T23:37:20.290Z,56.31
2018-05-06T23:39:47.910Z,56.45
2018-05-06T23:42:15.561Z,56.44
2018-05-06T23:44:43.115Z,56.49
2018-05-06T23:47:10.825Z,56.71
2018-05-06T23:49:38.369Z,57.12
2018-05-06T23:52:05.947Z,57.09
2018-05-06T23:54:33.548Z,57.30
2018-05-06T23:57:01.096Z,57.61
2018-05-06T23:59:28.745Z,57.63
